sensor_id;sensor_type;location;lat;lon;timestamp;temperature;humidity
79762;DHT22;69249;42.122;24.734;2023-06-22T00:00:49;25.60;45.30
79762;DHT22;69249;42.122;24.734;2023-06-22T00:03:17;25.70;45.20
79762;DHT22;69249;42.122;24.734;2023-06-22T00:05:43;25.60;46.00
79762;DHT22;69249;42.122;24.734;2023-06-22T00:08:08;25.50;46.90
79762;DHT22;69249;42.122;24.734;2023-06-22T00:10:34;25.30;47.20
79762;DHT22;69249;42.122;24.734;2023-06-22T00:13:00;25.30;47.60
79762;DHT22;69249;42.122;24.734;2023-06-22T00:15:26;25.40;47.90
79762;DHT22;69249;42.122;24.734;2023-06-22T00:17:52;25.40;48.20
79762;DHT22;69249;42.122;24.734;2023-06-22T00:20:18;25.40;48.10
79762;DHT22;69249;42.122;24.734;2023-06-22T00:22:44;25.30;48.80
79762;DHT22;69249;42.122;24.734;2023-06-22T00:25:10;25.30;48.90
79762;DHT22;69249;42.122;24.734;2023-06-22T00:27:36;25.20;49.30
79762;DHT22;69249;42.122;24.734;2023-06-22T00:30:02;25.20;49.70
79762;DHT22;69249;42.122;24.734;2023-06-22T00:32:28;25.10;49.70
79762;DHT22;69249;42.122;24.734;2023-06-22T00:34:54;25.00;50.20
79762;DHT22;69249;42.122;24.734;2023-06-22T00:37:20;25.00;50.30
79762;DHT22;69249;42.122;24.734;2023-06-22T00:39:54;25.00;50.50
79762;DHT22;69249;42.122;24.734;2023-06-22T00:42:20;24.80;50.40
79762;DHT22;69249;42.122;24.734;2023-06-22T00:44:46;24.90;50.50
79762;DHT22;69249;42.122;24.734;2023-06-22T00:47:14;24.80;50.50
79762;DHT22;69249;42.122;24.734;2023-06-22T00:49:41;24.80;50.50
79762;DHT22;69249;42.122;24.734;2023-06-22T00:52:08;24.70;50.90
79762;DHT22;69249;42.122;24.734;2023-06-22T00:54:37;24.60;51.40
79762;DHT22;69249;42.122;24.734;2023-06-22T00:57:04;24.50;51.50
79762;DHT22;69249;42.122;24.734;2023-06-22T00:59:30;24.50;51.60
79762;DHT22;69249;42.122;24.734;2023-06-22T01:01:57;24.50;51.90
79762;DHT22;69249;42.122;24.734;2023-06-22T01:04:35;24.50;51.90
79762;DHT22;69249;42.122;24.734;2023-06-22T01:12:34;24.40;52.60
79762;DHT22;69249;42.122;24.734;2023-06-22T01:15:21;24.40;52.20
79762;DHT22;69249;42.122;24.734;2023-06-22T01:17:48;24.40;53.20
79762;DHT22;69249;42.122;24.734;2023-06-22T01:20:15;24.60;51.10
79762;DHT22;69249;42.122;24.734;2023-06-22T01:25:50;24.60;50.90
79762;DHT22;69249;42.122;24.734;2023-06-22T01:28:46;24.50;51.40
79762;DHT22;69249;42.122;24.734;2023-06-22T01:31:19;24.50;51.60
79762;DHT22;69249;42.122;24.734;2023-06-22T01:33:50;24.20;52.40
79762;DHT22;69249;42.122;24.734;2023-06-22T01:36:17;24.10;53.20
79762;DHT22;69249;42.122;24.734;2023-06-22T01:38:44;24.00;53.70
79762;DHT22;69249;42.122;24.734;2023-06-22T01:41:11;23.90;54.10
79762;DHT22;69249;42.122;24.734;2023-06-22T01:43:37;23.90;54.50
79762;DHT22;69249;42.122;24.734;2023-06-22T01:46:04;23.90;54.50
79762;DHT22;69249;42.122;24.734;2023-06-22T01:48:30;23.90;54.50
79762;DHT22;69249;42.122;24.734;2023-06-22T01:50:56;24.00;54.60
79762;DHT22;69249;42.122;24.734;2023-06-22T01:53:23;24.00;54.70
79762;DHT22;69249;42.122;24.734;2023-06-22T01:55:48;24.00;54.70
79762;DHT22;69249;42.122;24.734;2023-06-22T01:58:14;24.20;54.20
79762;DHT22;69249;42.122;24.734;2023-06-22T02:00:47;24.20;54.20
79762;DHT22;69249;42.122;24.734;2023-06-22T02:03:26;24.10;54.70
79762;DHT22;69249;42.122;24.734;2023-06-22T02:05:58;24.10;54.40
79762;DHT22;69249;42.122;24.734;2023-06-22T02:08:33;24.20;54.30
79762;DHT22;69249;42.122;24.734;2023-06-22T02:11:01;24.10;54.50
79762;DHT22;69249;42.122;24.734;2023-06-22T02:13:27;24.00;54.50
79762;DHT22;69249;42.122;24.734;2023-06-22T02:15:53;24.00;54.70
79762;DHT22;69249;42.122;24.734;2023-06-22T02:18:19;23.80;55.20
79762;DHT22;69249;42.122;24.734;2023-06-22T02:20:46;23.50;56.30
79762;DHT22;69249;42.122;24.734;2023-06-22T02:23:11;23.60;56.20
79762;DHT22;69249;42.122;24.734;2023-06-22T02:25:37;23.50;56.20
79762;DHT22;69249;42.122;24.734;2023-06-22T02:28:03;23.40;56.40
79762;DHT22;69249;42.122;24.734;2023-06-22T02:30:29;23.50;56.50
79762;DHT22;69249;42.122;24.734;2023-06-22T02:32:54;23.60;56.00
79762;DHT22;69249;42.122;24.734;2023-06-22T02:35:28;23.70;56.40
79762;DHT22;69249;42.122;24.734;2023-06-22T02:37:58;23.70;55.20
79762;DHT22;69249;42.122;24.734;2023-06-22T02:40:25;23.50;55.60
79762;DHT22;69249;42.122;24.734;2023-06-22T02:42:50;23.30;56.50
79762;DHT22;69249;42.122;24.734;2023-06-22T02:45:16;23.20;57.20
79762;DHT22;69249;42.122;24.734;2023-06-22T02:47:42;23.30;57.00
79762;DHT22;69249;42.122;24.734;2023-06-22T02:50:08;23.40;56.40
79762;DHT22;69249;42.122;24.734;2023-06-22T02:52:33;23.40;56.40
79762;DHT22;69249;42.122;24.734;2023-06-22T02:54:59;23.40;56.30
79762;DHT22;69249;42.122;24.734;2023-06-22T02:57:25;23.50;55.80
79762;DHT22;69249;42.122;24.734;2023-06-22T02:59:51;23.50;55.90
79762;DHT22;69249;42.122;24.734;2023-06-22T03:02:16;23.30;56.30
79762;DHT22;69249;42.122;24.734;2023-06-22T03:04:43;23.20;56.90
79762;DHT22;69249;42.122;24.734;2023-06-22T03:07:08;23.20;57.20
79762;DHT22;69249;42.122;24.734;2023-06-22T03:09:34;23.10;57.40
79762;DHT22;69249;42.122;24.734;2023-06-22T03:12:00;23.30;56.90
79762;DHT22;69249;42.122;24.734;2023-06-22T03:14:27;23.50;56.20
79762;DHT22;69249;42.122;24.734;2023-06-22T03:16:53;23.50;56.00
79762;DHT22;69249;42.122;24.734;2023-06-22T03:19:18;23.30;55.90
79762;DHT22;69249;42.122;24.734;2023-06-22T03:21:45;23.30;55.40
79762;DHT22;69249;42.122;24.734;2023-06-22T03:24:11;23.20;55.80
79762;DHT22;69249;42.122;24.734;2023-06-22T03:26:36;23.20;55.80
79762;DHT22;69249;42.122;24.734;2023-06-22T03:29:02;23.10;56.30
79762;DHT22;69249;42.122;24.734;2023-06-22T03:31:28;23.10;55.20
79762;DHT22;69249;42.122;24.734;2023-06-22T03:33:54;23.30;54.00
79762;DHT22;69249;42.122;24.734;2023-06-22T03:36:20;23.30;54.20
79762;DHT22;69249;42.122;24.734;2023-06-22T03:38:46;23.30;54.10
79762;DHT22;69249;42.122;24.734;2023-06-22T03:41:12;23.30;54.30
79762;DHT22;69249;42.122;24.734;2023-06-22T03:43:38;23.40;54.20
79762;DHT22;69249;42.122;24.734;2023-06-22T03:46:04;23.30;54.40
79762;DHT22;69249;42.122;24.734;2023-06-22T03:48:29;23.30;54.60
79762;DHT22;69249;42.122;24.734;2023-06-22T03:50:55;23.30;54.80
79762;DHT22;69249;42.122;24.734;2023-06-22T03:53:20;23.30;54.70
79762;DHT22;69249;42.122;24.734;2023-06-22T03:55:51;23.20;55.20
79762;DHT22;69249;42.122;24.734;2023-06-22T03:58:20;23.20;55.40
79762;DHT22;69249;42.122;24.734;2023-06-22T04:00:47;23.10;55.70
79762;DHT22;69249;42.122;24.734;2023-06-22T04:03:14;23.20;55.80
79762;DHT22;69249;42.122;24.734;2023-06-22T04:05:40;23.20;55.70
79762;DHT22;69249;42.122;24.734;2023-06-22T04:08:06;23.20;56.00
79762;DHT22;69249;42.122;24.734;2023-06-22T04:10:31;23.20;55.90
79762;DHT22;69249;42.122;24.734;2023-06-22T04:12:57;23.30;55.80
79762;DHT22;69249;42.122;24.734;2023-06-22T04:15:23;23.30;55.90
79762;DHT22;69249;42.122;24.734;2023-06-22T04:17:48;23.30;55.60
79762;DHT22;69249;42.122;24.734;2023-06-22T04:20:14;23.30;55.80
79762;DHT22;69249;42.122;24.734;2023-06-22T04:22:40;23.50;55.40
79762;DHT22;69249;42.122;24.734;2023-06-22T04:25:06;23.50;55.20
79762;DHT22;69249;42.122;24.734;2023-06-22T04:27:33;23.50;55.30
79762;DHT22;69249;42.122;24.734;2023-06-22T04:30:07;23.50;55.50
79762;DHT22;69249;42.122;24.734;2023-06-22T04:32:33;23.50;55.60
79762;DHT22;69249;42.122;24.734;2023-06-22T04:35:02;23.50;56.10
79762;DHT22;69249;42.122;24.734;2023-06-22T04:37:27;23.70;55.50
79762;DHT22;69249;42.122;24.734;2023-06-22T04:39:53;23.70;55.10
79762;DHT22;69249;42.122;24.734;2023-06-22T04:42:19;23.90;54.70
79762;DHT22;69249;42.122;24.734;2023-06-22T04:44:45;23.90;54.40
79762;DHT22;69249;42.122;24.734;2023-06-22T04:47:11;23.90;54.30
79762;DHT22;69249;42.122;24.734;2023-06-22T04:49:37;24.10;54.30
79762;DHT22;69249;42.122;24.734;2023-06-22T04:52:03;24.30;53.10
79762;DHT22;69249;42.122;24.734;2023-06-22T04:54:30;24.50;52.70
79762;DHT22;69249;42.122;24.734;2023-06-22T04:56:59;24.60;52.70
79762;DHT22;69249;42.122;24.734;2023-06-22T04:59:29;24.70;52.30
79762;DHT22;69249;42.122;24.734;2023-06-22T05:02:02;24.60;52.90
79762;DHT22;69249;42.122;24.734;2023-06-22T05:04:31;24.70;53.00
79762;DHT22;69249;42.122;24.734;2023-06-22T05:07:02;24.70;52.90
79762;DHT22;69249;42.122;24.734;2023-06-22T05:09:31;24.70;53.10
79762;DHT22;69249;42.122;24.734;2023-06-22T05:11:59;25.00;51.50
79762;DHT22;69249;42.122;24.734;2023-06-22T05:14:33;25.20;50.30
79762;DHT22;69249;42.122;24.734;2023-06-22T05:16:58;25.20;50.40
79762;DHT22;69249;42.122;24.734;2023-06-22T05:19:38;25.30;50.40
79762;DHT22;69249;42.122;24.734;2023-06-22T05:22:04;25.30;50.80
79762;DHT22;69249;42.122;24.734;2023-06-22T05:24:31;25.10;51.50
79762;DHT22;69249;42.122;24.734;2023-06-22T05:26:57;25.20;51.10
79762;DHT22;69249;42.122;24.734;2023-06-22T05:29:23;25.30;50.80
79762;DHT22;69249;42.122;24.734;2023-06-22T05:31:49;25.30;51.30
79762;DHT22;69249;42.122;24.734;2023-06-22T05:34:15;25.40;51.50
79762;DHT22;69249;42.122;24.734;2023-06-22T05:36:40;25.50;51.00
79762;DHT22;69249;42.122;24.734;2023-06-22T05:39:13;25.70;51.10
79762;DHT22;69249;42.122;24.734;2023-06-22T05:41:39;25.80;50.30
79762;DHT22;69249;42.122;24.734;2023-06-22T05:44:11;25.90;50.20
79762;DHT22;69249;42.122;24.734;2023-06-22T05:46:39;26.00;49.00
79762;DHT22;69249;42.122;24.734;2023-06-22T05:49:04;26.20;49.20
79762;DHT22;69249;42.122;24.734;2023-06-22T05:51:33;26.30;47.70
79762;DHT22;69249;42.122;24.734;2023-06-22T05:53:59;26.50;47.10
79762;DHT22;69249;42.122;24.734;2023-06-22T05:56:24;26.60;46.50
79762;DHT22;69249;42.122;24.734;2023-06-22T05:58:50;26.80;46.10
79762;DHT22;69249;42.122;24.734;2023-06-22T06:01:19;26.80;45.60
79762;DHT22;69249;42.122;24.734;2023-06-22T06:03:50;26.90;45.70
79762;DHT22;69249;42.122;24.734;2023-06-22T06:06:18;27.00;44.80
79762;DHT22;69249;42.122;24.734;2023-06-22T06:08:43;27.20;43.50
79762;DHT22;69249;42.122;24.734;2023-06-22T06:11:09;27.30;43.50
79762;DHT22;69249;42.122;24.734;2023-06-22T06:13:35;27.50;43.00
79762;DHT22;69249;42.122;24.734;2023-06-22T06:16:01;27.60;43.20
79762;DHT22;69249;42.122;24.734;2023-06-22T06:18:27;27.50;44.10
79762;DHT22;69249;42.122;24.734;2023-06-22T06:20:56;27.60;44.10
79762;DHT22;69249;42.122;24.734;2023-06-22T06:23:22;27.60;42.60
79762;DHT22;69249;42.122;24.734;2023-06-22T06:25:48;27.70;43.30
79762;DHT22;69249;42.122;24.734;2023-06-22T06:28:14;27.80;41.30
79762;DHT22;69249;42.122;24.734;2023-06-22T06:30:39;28.00;42.00
79762;DHT22;69249;42.122;24.734;2023-06-22T06:33:06;28.00;42.00
79762;DHT22;69249;42.122;24.734;2023-06-22T06:35:34;28.10;43.40
79762;DHT22;69249;42.122;24.734;2023-06-22T06:38:00;28.30;41.00
79762;DHT22;69249;42.122;24.734;2023-06-22T06:40:26;28.40;41.30
79762;DHT22;69249;42.122;24.734;2023-06-22T06:42:51;28.50;41.10
79762;DHT22;69249;42.122;24.734;2023-06-22T06:45:22;28.50;40.30
79762;DHT22;69249;42.122;24.734;2023-06-22T06:47:49;28.60;39.40
79762;DHT22;69249;42.122;24.734;2023-06-22T06:50:15;28.70;39.70
79762;DHT22;69249;42.122;24.734;2023-06-22T06:52:41;28.80;39.70
79762;DHT22;69249;42.122;24.734;2023-06-22T06:55:08;29.00;39.30
79762;DHT22;69249;42.122;24.734;2023-06-22T06:57:40;29.00;39.10
79762;DHT22;69249;42.122;24.734;2023-06-22T07:00:09;29.20;39.20
79762;DHT22;69249;42.122;24.734;2023-06-22T07:02:38;29.20;37.50
79762;DHT22;69249;42.122;24.734;2023-06-22T07:05:05;29.40;38.20
79762;DHT22;69249;42.122;24.734;2023-06-22T07:07:31;29.50;38.10
79762;DHT22;69249;42.122;24.734;2023-06-22T07:10:08;29.70;38.20
79762;DHT22;69249;42.122;24.734;2023-06-22T07:12:36;29.90;36.70
79762;DHT22;69249;42.122;24.734;2023-06-22T07:15:13;29.90;36.60
79762;DHT22;69249;42.122;24.734;2023-06-22T07:17:48;30.00;36.90
79762;DHT22;69249;42.122;24.734;2023-06-22T07:20:20;30.10;36.80
79762;DHT22;69249;42.122;24.734;2023-06-22T07:22:49;30.10;37.00
79762;DHT22;69249;42.122;24.734;2023-06-22T07:25:18;29.90;36.80
79762;DHT22;69249;42.122;24.734;2023-06-22T07:27:57;29.90;36.60
79762;DHT22;69249;42.122;24.734;2023-06-22T07:30:23;29.80;37.30
79762;DHT22;69249;42.122;24.734;2023-06-22T07:32:49;29.80;37.20
79762;DHT22;69249;42.122;24.734;2023-06-22T07:35:17;29.80;38.30
79762;DHT22;69249;42.122;24.734;2023-06-22T07:37:44;29.80;37.30
79762;DHT22;69249;42.122;24.734;2023-06-22T07:40:10;29.80;37.30
79762;DHT22;69249;42.122;24.734;2023-06-22T07:42:36;29.90;37.00
79762;DHT22;69249;42.122;24.734;2023-06-22T07:45:11;30.10;36.20
79762;DHT22;69249;42.122;24.734;2023-06-22T07:47:40;30.10;35.40
79762;DHT22;69249;42.122;24.734;2023-06-22T07:50:06;30.20;35.50
79762;DHT22;69249;42.122;24.734;2023-06-22T07:52:32;30.20;35.40
79762;DHT22;69249;42.122;24.734;2023-06-22T07:54:58;30.20;34.70
79762;DHT22;69249;42.122;24.734;2023-06-22T07:57:23;30.30;34.70
79762;DHT22;69249;42.122;24.734;2023-06-22T08:00:00;30.40;34.30
79762;DHT22;69249;42.122;24.734;2023-06-22T08:02:27;30.50;34.00
79762;DHT22;69249;42.122;24.734;2023-06-22T08:04:52;30.60;33.30
79762;DHT22;69249;42.122;24.734;2023-06-22T08:07:18;30.60;32.40
79762;DHT22;69249;42.122;24.734;2023-06-22T08:09:48;30.70;32.10
79762;DHT22;69249;42.122;24.734;2023-06-22T08:12:15;30.90;32.40
79762;DHT22;69249;42.122;24.734;2023-06-22T08:14:42;30.90;32.30
79762;DHT22;69249;42.122;24.734;2023-06-22T08:17:09;30.90;32.50
79762;DHT22;69249;42.122;24.734;2023-06-22T08:19:35;30.70;32.30
79762;DHT22;69249;42.122;24.734;2023-06-22T08:22:05;30.80;32.70
79762;DHT22;69249;42.122;24.734;2023-06-22T08:24:31;31.00;32.80
79762;DHT22;69249;42.122;24.734;2023-06-22T08:26:57;31.10;32.30
79762;DHT22;69249;42.122;24.734;2023-06-22T08:29:25;31.20;32.10
79762;DHT22;69249;42.122;24.734;2023-06-22T08:31:51;31.40;32.20
79762;DHT22;69249;42.122;24.734;2023-06-22T08:34:17;31.50;31.50
79762;DHT22;69249;42.122;24.734;2023-06-22T08:36:49;31.60;31.80
79762;DHT22;69249;42.122;24.734;2023-06-22T08:39:17;31.70;31.00
79762;DHT22;69249;42.122;24.734;2023-06-22T08:41:43;31.70;31.00
79762;DHT22;69249;42.122;24.734;2023-06-22T08:44:10;31.70;31.00
79762;DHT22;69249;42.122;24.734;2023-06-22T08:46:36;31.90;30.80
79762;DHT22;69249;42.122;24.734;2023-06-22T08:49:02;32.00;29.90
79762;DHT22;69249;42.122;24.734;2023-06-22T08:51:28;32.10;29.40
79762;DHT22;69249;42.122;24.734;2023-06-22T08:53:54;32.10;29.30
79762;DHT22;69249;42.122;24.734;2023-06-22T08:56:20;32.20;29.90
79762;DHT22;69249;42.122;24.734;2023-06-22T08:58:46;32.20;29.50
79762;DHT22;69249;42.122;24.734;2023-06-22T09:01:11;32.40;28.70
79762;DHT22;69249;42.122;24.734;2023-06-22T09:03:37;32.40;29.10
79762;DHT22;69249;42.122;24.734;2023-06-22T09:06:03;32.40;29.10
79762;DHT22;69249;42.122;24.734;2023-06-22T09:08:29;32.50;29.10
79762;DHT22;69249;42.122;24.734;2023-06-22T09:10:54;32.50;29.10
79762;DHT22;69249;42.122;24.734;2023-06-22T09:13:20;32.60;29.10
79762;DHT22;69249;42.122;24.734;2023-06-22T09:15:47;32.70;27.70
79762;DHT22;69249;42.122;24.734;2023-06-22T09:18:13;32.90;28.00
79762;DHT22;69249;42.122;24.734;2023-06-22T09:21:00;32.90;28.00
79762;DHT22;69249;42.122;24.734;2023-06-22T09:23:29;32.90;27.70
79762;DHT22;69249;42.122;24.734;2023-06-22T09:25:55;32.90;27.80
79762;DHT22;69249;42.122;24.734;2023-06-22T09:28:20;32.90;27.30
79762;DHT22;69249;42.122;24.734;2023-06-22T09:30:47;33.00;27.60
79762;DHT22;69249;42.122;24.734;2023-06-22T09:33:13;33.10;27.80
79762;DHT22;69249;42.122;24.734;2023-06-22T09:35:39;33.30;25.60
79762;DHT22;69249;42.122;24.734;2023-06-22T09:38:05;33.50;26.10
79762;DHT22;69249;42.122;24.734;2023-06-22T09:40:30;33.60;26.50
79762;DHT22;69249;42.122;24.734;2023-06-22T09:42:58;33.80;25.00
79762;DHT22;69249;42.122;24.734;2023-06-22T09:45:24;33.80;25.50
79762;DHT22;69249;42.122;24.734;2023-06-22T09:47:52;33.90;25.90
79762;DHT22;69249;42.122;24.734;2023-06-22T09:50:18;34.00;25.40
79762;DHT22;69249;42.122;24.734;2023-06-22T09:52:44;34.00;24.60
79762;DHT22;69249;42.122;24.734;2023-06-22T09:55:12;34.00;25.80
79762;DHT22;69249;42.122;24.734;2023-06-22T09:57:43;34.10;26.60
79762;DHT22;69249;42.122;24.734;2023-06-22T10:00:13;34.10;25.90
79762;DHT22;69249;42.122;24.734;2023-06-22T10:02:41;34.20;25.50
79762;DHT22;69249;42.122;24.734;2023-06-22T10:05:07;34.40;25.10
79762;DHT22;69249;42.122;24.734;2023-06-22T10:07:33;34.50;24.40
79762;DHT22;69249;42.122;24.734;2023-06-22T10:10:09;34.60;24.50
79762;DHT22;69249;42.122;24.734;2023-06-22T10:12:35;34.40;24.70
79762;DHT22;69249;42.122;24.734;2023-06-22T10:15:02;34.40;25.10
79762;DHT22;69249;42.122;24.734;2023-06-22T10:17:30;34.40;25.90
79762;DHT22;69249;42.122;24.734;2023-06-22T10:19:59;34.40;26.30
79762;DHT22;69249;42.122;24.734;2023-06-22T10:22:26;34.40;24.90
79762;DHT22;69249;42.122;24.734;2023-06-22T10:24:52;34.40;25.50
79762;DHT22;69249;42.122;24.734;2023-06-22T10:27:20;34.50;25.10
79762;DHT22;69249;42.122;24.734;2023-06-22T10:29:46;34.60;24.50
79762;DHT22;69249;42.122;24.734;2023-06-22T10:32:11;34.60;24.70
79762;DHT22;69249;42.122;24.734;2023-06-22T10:34:37;34.60;24.80
79762;DHT22;69249;42.122;24.734;2023-06-22T10:37:02;34.60;24.20
79762;DHT22;69249;42.122;24.734;2023-06-22T10:39:28;34.60;24.30
79762;DHT22;69249;42.122;24.734;2023-06-22T10:41:54;34.60;25.10
79762;DHT22;69249;42.122;24.734;2023-06-22T10:44:21;34.70;24.80
79762;DHT22;69249;42.122;24.734;2023-06-22T10:46:47;34.80;23.50
79762;DHT22;69249;42.122;24.734;2023-06-22T10:49:13;34.80;24.20
79762;DHT22;69249;42.122;24.734;2023-06-22T10:51:38;34.90;23.70
79762;DHT22;69249;42.122;24.734;2023-06-22T10:54:04;34.80;23.90
79762;DHT22;69249;42.122;24.734;2023-06-22T10:56:30;34.80;23.90
79762;DHT22;69249;42.122;24.734;2023-06-22T10:58:55;34.70;24.30
79762;DHT22;69249;42.122;24.734;2023-06-22T11:01:21;34.60;24.90
79762;DHT22;69249;42.122;24.734;2023-06-22T11:03:47;34.80;25.50
79762;DHT22;69249;42.122;24.734;2023-06-22T11:06:12;34.90;24.50
79762;DHT22;69249;42.122;24.734;2023-06-22T11:08:40;35.20;24.60
79762;DHT22;69249;42.122;24.734;2023-06-22T11:11:05;35.40;24.40
79762;DHT22;69249;42.122;24.734;2023-06-22T11:13:31;35.80;24.00
79762;DHT22;69249;42.122;24.734;2023-06-22T11:15:57;36.20;23.10
79762;DHT22;69249;42.122;24.734;2023-06-22T11:18:22;36.70;23.10
79762;DHT22;69249;42.122;24.734;2023-06-22T11:20:48;37.30;22.80
79762;DHT22;69249;42.122;24.734;2023-06-22T11:23:14;37.40;21.30
79762;DHT22;69249;42.122;24.734;2023-06-22T11:25:40;37.50;21.50
79762;DHT22;69249;42.122;24.734;2023-06-22T11:28:07;38.40;21.60
79762;DHT22;69249;42.122;24.734;2023-06-22T11:30:33;40.20;19.30
79762;DHT22;69249;42.122;24.734;2023-06-22T11:33:00;41.00;18.60
79762;DHT22;69249;42.122;24.734;2023-06-22T11:35:26;42.40;17.50
79762;DHT22;69249;42.122;24.734;2023-06-22T11:37:51;42.40;17.20
79762;DHT22;69249;42.122;24.734;2023-06-22T11:40:17;41.80;17.50
79762;DHT22;69249;42.122;24.734;2023-06-22T11:42:43;41.60;18.30
79762;DHT22;69249;42.122;24.734;2023-06-22T11:45:09;43.10;17.40
79762;DHT22;69249;42.122;24.734;2023-06-22T11:47:35;43.20;17.70
79762;DHT22;69249;42.122;24.734;2023-06-22T11:50:02;43.10;17.30
79762;DHT22;69249;42.122;24.734;2023-06-22T11:52:28;45.30;16.30
79762;DHT22;69249;42.122;24.734;2023-06-22T11:54:54;46.10;16.00
79762;DHT22;69249;42.122;24.734;2023-06-22T11:57:19;46.40;15.00
79762;DHT22;69249;42.122;24.734;2023-06-22T11:59:45;46.60;14.90
79762;DHT22;69249;42.122;24.734;2023-06-22T12:02:10;46.70;14.30
79762;DHT22;69249;42.122;24.734;2023-06-22T12:04:36;45.90;14.80
79762;DHT22;69249;42.122;24.734;2023-06-22T12:07:03;45.30;15.30
79762;DHT22;69249;42.122;24.734;2023-06-22T12:09:28;44.50;15.50
79762;DHT22;69249;42.122;24.734;2023-06-22T12:11:54;43.80;16.20
79762;DHT22;69249;42.122;24.734;2023-06-22T12:14:20;42.90;16.80
79762;DHT22;69249;42.122;24.734;2023-06-22T12:16:45;42.00;17.60
79762;DHT22;69249;42.122;24.734;2023-06-22T12:19:11;41.00;18.80
79762;DHT22;69249;42.122;24.734;2023-06-22T12:21:37;40.50;19.30
79762;DHT22;69249;42.122;24.734;2023-06-22T12:24:04;40.20;19.90
79762;DHT22;69249;42.122;24.734;2023-06-22T12:26:30;39.90;20.00
79762;DHT22;69249;42.122;24.734;2023-06-22T12:28:56;39.60;20.20
79762;DHT22;69249;42.122;24.734;2023-06-22T12:31:21;39.30;20.90
79762;DHT22;69249;42.122;24.734;2023-06-22T12:33:47;38.90;21.40
79762;DHT22;69249;42.122;24.734;2023-06-22T12:36:13;38.60;21.90
79762;DHT22;69249;42.122;24.734;2023-06-22T12:38:38;38.20;20.90
79762;DHT22;69249;42.122;24.734;2023-06-22T12:41:04;37.70;21.40
79762;DHT22;69249;42.122;24.734;2023-06-22T12:43:29;37.40;22.70
79762;DHT22;69249;42.122;24.734;2023-06-22T12:45:55;37.10;22.30
79762;DHT22;69249;42.122;24.734;2023-06-22T12:48:22;37.10;22.00
79762;DHT22;69249;42.122;24.734;2023-06-22T12:50:48;37.10;22.40
79762;DHT22;69249;42.122;24.734;2023-06-22T12:53:13;37.30;22.60
79762;DHT22;69249;42.122;24.734;2023-06-22T12:55:39;37.60;22.60
79762;DHT22;69249;42.122;24.734;2023-06-22T12:58:05;37.80;22.40
79762;DHT22;69249;42.122;24.734;2023-06-22T13:00:30;37.60;23.20
79762;DHT22;69249;42.122;24.734;2023-06-22T13:02:56;37.40;23.10
79762;DHT22;69249;42.122;24.734;2023-06-22T13:05:22;37.10;23.50
79762;DHT22;69249;42.122;24.734;2023-06-22T13:07:47;36.70;23.00
79762;DHT22;69249;42.122;24.734;2023-06-22T13:10:13;36.30;22.90
79762;DHT22;69249;42.122;24.734;2023-06-22T13:12:38;36.20;23.90
79762;DHT22;69249;42.122;24.734;2023-06-22T13:15:04;36.00;24.30
79762;DHT22;69249;42.122;24.734;2023-06-22T13:17:30;35.80;24.90
79762;DHT22;69249;42.122;24.734;2023-06-22T13:19:56;35.70;24.40
79762;DHT22;69249;42.122;24.734;2023-06-22T13:22:35;35.60;24.40
79762;DHT22;69249;42.122;24.734;2023-06-22T13:25:09;35.60;24.40
79762;DHT22;69249;42.122;24.734;2023-06-22T13:27:41;35.50;25.00
79762;DHT22;69249;42.122;24.734;2023-06-22T13:30:09;35.40;25.30
79762;DHT22;69249;42.122;24.734;2023-06-22T13:32:35;35.30;25.60
79762;DHT22;69249;42.122;24.734;2023-06-22T13:35:00;35.00;25.30
79762;DHT22;69249;42.122;24.734;2023-06-22T13:37:26;34.80;25.50
79762;DHT22;69249;42.122;24.734;2023-06-22T13:39:52;34.60;25.70
79762;DHT22;69249;42.122;24.734;2023-06-22T13:42:18;34.50;25.90
79762;DHT22;69249;42.122;24.734;2023-06-22T13:44:44;34.20;26.50
79762;DHT22;69249;42.122;24.734;2023-06-22T13:47:09;34.10;26.80
79762;DHT22;69249;42.122;24.734;2023-06-22T13:49:35;33.90;27.40
79762;DHT22;69249;42.122;24.734;2023-06-22T13:52:01;33.70;27.80
79762;DHT22;69249;42.122;24.734;2023-06-22T13:54:28;33.60;28.50
79762;DHT22;69249;42.122;24.734;2023-06-22T13:56:55;33.50;30.70
79762;DHT22;69249;42.122;24.734;2023-06-22T13:59:21;33.30;34.00
79762;DHT22;69249;42.122;24.734;2023-06-22T14:01:47;33.10;36.10
79762;DHT22;69249;42.122;24.734;2023-06-22T14:04:12;32.80;36.70
79762;DHT22;69249;42.122;24.734;2023-06-22T14:06:38;32.60;35.70
79762;DHT22;69249;42.122;24.734;2023-06-22T14:09:04;32.40;36.80
79762;DHT22;69249;42.122;24.734;2023-06-22T14:11:29;32.20;36.30
79762;DHT22;69249;42.122;24.734;2023-06-22T14:13:55;32.10;36.10
79762;DHT22;69249;42.122;24.734;2023-06-22T14:16:21;32.10;37.90
79762;DHT22;69249;42.122;24.734;2023-06-22T14:18:46;32.10;38.00
79762;DHT22;69249;42.122;24.734;2023-06-22T14:21:12;32.10;38.50
79762;DHT22;69249;42.122;24.734;2023-06-22T14:23:38;32.10;39.80
79762;DHT22;69249;42.122;24.734;2023-06-22T14:26:03;32.20;39.30
79762;DHT22;69249;42.122;24.734;2023-06-22T14:28:29;32.20;36.10
79762;DHT22;69249;42.122;24.734;2023-06-22T14:30:55;32.30;35.50
79762;DHT22;69249;42.122;24.734;2023-06-22T14:33:22;32.30;33.80
79762;DHT22;69249;42.122;24.734;2023-06-22T14:35:47;32.40;33.60
79762;DHT22;69249;42.122;24.734;2023-06-22T14:38:13;32.30;32.30
79762;DHT22;69249;42.122;24.734;2023-06-22T14:40:39;32.20;34.00
79762;DHT22;69249;42.122;24.734;2023-06-22T14:43:04;32.10;34.80
79762;DHT22;69249;42.122;24.734;2023-06-22T14:45:30;31.90;36.10
79762;DHT22;69249;42.122;24.734;2023-06-22T14:47:55;31.60;34.90
79762;DHT22;69249;42.122;24.734;2023-06-22T14:50:21;31.40;36.00
79762;DHT22;69249;42.122;24.734;2023-06-22T14:52:47;31.30;37.20
79762;DHT22;69249;42.122;24.734;2023-06-22T14:55:12;31.30;37.70
79762;DHT22;69249;42.122;24.734;2023-06-22T14:57:38;31.10;37.30
79762;DHT22;69249;42.122;24.734;2023-06-22T15:00:04;31.20;38.00
79762;DHT22;69249;42.122;24.734;2023-06-22T15:02:31;31.10;37.60
79762;DHT22;69249;42.122;24.734;2023-06-22T15:04:57;31.10;37.60
79762;DHT22;69249;42.122;24.734;2023-06-22T15:07:23;31.00;46.80
79762;DHT22;69249;42.122;24.734;2023-06-22T15:09:48;30.70;48.00
79762;DHT22;69249;42.122;24.734;2023-06-22T15:12:14;30.40;50.30
79762;DHT22;69249;42.122;24.734;2023-06-22T15:14:42;30.20;53.60
79762;DHT22;69249;42.122;24.734;2023-06-22T15:17:08;29.30;72.50
79762;DHT22;69249;42.122;24.734;2023-06-22T15:19:35;27.70;74.10
79762;DHT22;69249;42.122;24.734;2023-06-22T15:22:02;26.30;77.50